createdAt,value
2023-04-28T00:01:55.113Z,76051.52
2023-04-28T00:04:24.591Z,76051.94
2023-04-28T00:06:52.193Z,76054.00
2023-04-28T00:09:19.356Z,76056.46
2023-04-28T00:11:47.283Z,76058.11
2023-04-28T00:14:15.827Z,76060.17
2023-04-28T00:16:43.376Z,76063.05
2023-04-28T00:19:10.544Z,76061.40
2023-04-28T00:21:37.617Z,76064.28
2023-04-28T00:24:06.504Z,76064.28
2023-04-28T00:26:33.690Z,76064.28
2023-04-28T00:29:03.624Z,76066.34
2023-04-28T00:31:31.273Z,76068.40
2023-04-28T00:33:58.453Z,76072.92
2023-04-28T00:36:26.980Z,76072.52
2023-04-28T00:38:54.613Z,76074.98
2023-04-28T00:41:21.885Z,76080.33
2023-04-28T00:43:49.339Z,76087.73
2023-04-28T00:46:25.054Z,76093.51
2023-04-28T00:48:52.832Z,76100.91
2023-04-28T00:51:20.031Z,76101.33
2023-04-28T00:53:47.130Z,76105.85
2023-04-28T00:56:14.404Z,76106.66
2023-04-28T00:58:42.016Z,76106.67
2023-04-28T01:01:09.986Z,76114.48
2023-04-28T01:03:39.406Z,76116.14
2023-04-28T01:06:08.144Z,76117.78
2023-04-28T01:08:36.331Z,76120.66
2023-04-28T01:11:05.303Z,76120.67
2023-04-28T01:13:52.951Z,76123.13
2023-04-28T01:16:20.396Z,76127.24
2023-04-28T01:18:48.461Z,76127.66
2023-04-28T01:21:15.833Z,76127.66
2023-04-28T01:23:46.733Z,76130.13
2023-04-28T01:26:13.897Z,76127.66
2023-04-28T01:28:41.088Z,76127.24
2023-04-28T01:31:11.195Z,76127.24
2023-04-28T01:33:38.967Z,76125.60
2023-04-28T01:36:06.531Z,76128.89
2023-04-28T01:38:33.683Z,76130.54
2023-04-28T01:41:02.740Z,76132.19
2023-04-28T01:43:33.736Z,76130.95
2023-04-28T01:46:00.961Z,76131.77
2023-04-28T01:48:28.150Z,76131.77
2023-04-28T01:50:55.239Z,76130.13
2023-04-28T01:53:22.337Z,76128.48
2023-04-28T01:55:49.685Z,76127.66
2023-04-28T01:58:17.363Z,76130.54
2023-04-28T02:00:44.464Z,76135.89
2023-04-28T02:03:12.090Z,76134.65
2023-04-28T02:05:39.278Z,76136.30
2023-04-28T02:08:06.482Z,76141.24
2023-04-28T02:10:33.727Z,76144.53
2023-04-28T02:13:03.438Z,76146.18
2023-04-28T02:15:30.968Z,76145.77
2023-04-28T02:17:58.091Z,76147.83
2023-04-28T02:20:27.313Z,76150.30
2023-04-28T02:22:56.546Z,76149.05
2023-04-28T02:25:23.734Z,76148.65
2023-04-28T02:27:50.833Z,76149.89
2023-04-28T02:30:18.130Z,76153.59
2023-04-28T02:32:45.261Z,76155.23
2023-04-28T02:35:14.435Z,76160.17
2023-04-28T02:37:41.574Z,76163.46
2023-04-28T02:40:09.451Z,76166.75
2023-04-28T02:42:37.938Z,76170.45
2023-04-28T02:45:06.130Z,76174.16
2023-04-28T02:47:33.379Z,76179.10
2023-04-28T02:50:01.073Z,76183.63
2023-04-28T02:52:28.438Z,76188.56
2023-04-28T02:54:57.747Z,76190.21
2023-04-28T02:57:25.266Z,76189.39
2023-04-28T02:59:56.431Z,76190.20
2023-04-28T03:04:04.427Z,76195.15
2023-04-28T03:06:32.861Z,76197.61
2023-04-28T03:08:59.986Z,76199.27
2023-04-28T03:11:32.311Z,76202.56
2023-04-28T03:14:02.470Z,76205.02
2023-04-28T03:16:29.666Z,76205.85
2023-04-28T03:18:56.750Z,76208.33
2023-04-28T03:21:28.613Z,76210.38
2023-04-28T03:23:58.758Z,76213.67
2023-04-28T03:26:26.493Z,76217.38
2023-04-28T03:28:54.083Z,76216.96
2023-04-28T03:31:21.296Z,76215.73
2023-04-28T03:33:49.821Z,76217.79
2023-04-28T03:36:17.039Z,76220.66
2023-04-28T03:38:44.094Z,76221.89
2023-04-28T03:41:12.082Z,76223.55
2023-04-28T03:43:40.659Z,76220.66
2023-04-28T03:46:26.356Z,76217.78
2023-04-28T03:48:56.846Z,76215.32
2023-04-28T03:51:24.507Z,76213.67
2023-04-28T03:53:52.812Z,76212.02
2023-04-28T03:56:20.181Z,76214.48
2023-04-28T03:58:47.520Z,76215.31
2023-04-28T04:01:15.226Z,76216.96
2023-04-28T04:03:42.853Z,76218.20
2023-04-28T04:06:13.121Z,76224.78
2023-04-28T04:08:42.223Z,76228.90
2023-04-28T04:11:09.394Z,76233.42
2023-04-28T04:13:37.085Z,76233.02
2023-04-28T04:16:06.994Z,76230.13
2023-04-28T04:18:36.071Z,76225.60
2023-04-28T04:21:23.943Z,76228.48
2023-04-28T04:23:53.492Z,76226.42
2023-04-28T04:26:21.064Z,76223.13
2023-04-28T04:28:50.397Z,76221.48
2023-04-28T04:31:22.106Z,76222.73
2023-04-28T04:33:49.275Z,76226.84
2023-04-28T04:36:17.595Z,76228.90
2023-04-28T04:38:46.755Z,76229.30
2023-04-28T04:41:22.260Z,76232.60
2023-04-28T04:43:50.723Z,76231.77
2023-04-28T04:46:20.154Z,76226.84
2023-04-28T04:48:47.259Z,76223.96
2023-04-28T04:51:14.529Z,76214.91
2023-04-28T04:53:43.572Z,76206.67
2023-04-28T04:56:12.964Z,76196.80
2023-04-28T04:58:43.929Z,76186.51
2023-04-28T05:01:37.252Z,76166.34
2023-04-28T05:04:05.236Z,76147.83
2023-04-28T05:06:33.290Z,76120.25
2023-04-28T05:09:00.511Z,76094.33
2023-04-28T05:11:27.846Z,76067.58
2023-04-28T05:13:56.283Z,76052.35
2023-04-28T05:16:26.957Z,76033.83
2023-04-28T05:19:20.200Z,76023.13
2023-04-28T05:21:48.102Z,76019.02
2023-04-28T05:24:15.484Z,76013.26
2023-04-28T05:26:44.304Z,76004.61
2023-04-28T05:29:16.150Z,75982.80
2023-04-28T05:31:47.530Z,75958.94
2023-04-28T05:34:17.455Z,75935.89
2023-04-28T05:36:45.276Z,75914.48
2023-04-28T05:39:15.099Z,75884.86
2023-04-28T05:41:43.771Z,75851.94
2023-04-28T05:44:12.314Z,75825.61
2023-04-28T05:46:39.978Z,75793.10
2023-04-28T05:49:07.384Z,75764.29
2023-04-28T05:51:38.220Z,75755.65
2023-04-28T05:54:07.391Z,75747.42
2023-04-28T05:56:40.429Z,75724.38
2023-04-28T05:59:09.303Z,75698.04
2023-04-28T06:01:37.050Z,75684.88
2023-04-28T06:04:07.107Z,75682.81
2023-04-28T06:06:35.548Z,75687.76
2023-04-28T06:09:04.933Z,75676.65
2023-04-28T06:11:33.430Z,75660.61
2023-04-28T06:14:02.095Z,75655.66
2023-04-28T06:16:29.516Z,75644.14
2023-04-28T06:18:59.060Z,75637.96
2023-04-28T06:21:27.045Z,75632.20
2023-04-28T06:23:56.546Z,75614.10
2023-04-28T06:26:27.621Z,75584.06
2023-04-28T06:28:56.098Z,75547.86
2023-04-28T06:31:23.332Z,75496.01
2023-04-28T06:33:52.766Z,75444.98
2023-04-28T06:36:20.180Z,75392.73
2023-04-28T06:38:47.454Z,75370.92
2023-04-28T06:41:16.009Z,75363.11
2023-04-28T06:43:48.701Z,75349.11
2023-04-28T06:46:22.232Z,75323.61
2023-04-28T06:48:52.643Z,75295.22
2023-04-28T06:51:26.708Z,75266.00
2023-04-28T06:53:57.100Z,75232.27
2023-04-28T06:56:24.837Z,75215.81
2023-04-28T06:58:55.192Z,75199.77
2023-04-28T07:01:22.538Z,75154.52
2023-04-28T07:03:49.896Z,75093.20
2023-04-28T07:06:22.799Z,75063.58
2023-04-28T07:08:52.977Z,75089.09
2023-04-28T07:11:20.429Z,75126.12
2023-04-28T07:13:49.024Z,75167.27
2023-04-28T07:16:22.870Z,75191.54
2023-04-28T07:18:50.377Z,75196.89
2023-04-28T07:21:17.681Z,75184.55
2023-04-28T07:23:45.478Z,75187.84
2023-04-28T07:26:16.105Z,75187.42
2023-04-28T07:28:44.433Z,75174.26
2023-04-28T07:31:12.895Z,75132.30
2023-04-28T07:33:42.565Z,75082.52
2023-04-28T07:36:10.069Z,75028.20
2023-04-28T07:38:38.395Z,75004.34
2023-04-28T07:41:07.635Z,74982.53
2023-04-28T07:43:37.108Z,74958.27
2023-04-28T07:46:06.629Z,74941.39
2023-04-28T07:48:35.000Z,74948.39
2023-04-28T07:51:03.616Z,74964.02
2023-04-28T07:53:30.887Z,74963.61
2023-04-28T07:55:59.170Z,74963.61
2023-04-28T07:58:31.205Z,74973.48
2023-04-28T08:00:59.802Z,74991.17
2023-04-28T08:03:27.622Z,75005.16
2023-04-28T08:05:59.777Z,75019.98
2023-04-28T08:08:27.220Z,75029.02
2023-04-28T08:10:55.287Z,75051.24
2023-04-28T08:13:23.247Z,75066.05
2023-04-28T08:15:51.291Z,75049.19
2023-04-28T08:18:18.940Z,75020.39
2023-04-28T08:20:46.364Z,74964.43
2023-04-28T08:23:13.880Z,74899.42
2023-04-28T08:25:42.445Z,74837.31
2023-04-28T08:28:12.349Z,74766.55
2023-04-28T08:30:40.521Z,74703.61
2023-04-28T08:33:10.161Z,74671.11
2023-04-28T08:35:38.290Z,74716.77
2023-04-28T08:38:07.521Z,74753.79
2023-04-28T08:40:38.274Z,74785.06
2023-04-28T08:43:08.226Z,74798.64
2023-04-28T08:45:45.171Z,74755.84
2023-04-28T08:48:22.026Z,74686.74
2023-04-28T08:50:56.446Z,74639.02
2023-04-28T08:53:24.803Z,74650.95
2023-04-28T08:56:18.957Z,74688.80
2023-04-28T08:58:47.968Z,74722.11
2023-04-28T09:01:17.335Z,74744.74
2023-04-28T09:03:47.613Z,74726.64
2023-04-28T09:06:17.870Z,74678.51
2023-04-28T09:08:46.561Z,74646.42
2023-04-28T09:11:14.420Z,74602.41
2023-04-28T09:13:42.106Z,74530.00
2023-04-28T09:16:13.214Z,74464.19
2023-04-28T09:18:56.428Z,74396.31
2023-04-28T09:21:24.004Z,74318.15
2023-04-28T09:23:52.895Z,74275.79
2023-04-28T09:26:20.205Z,74256.05
2023-04-28T09:28:51.168Z,74240.83
2023-04-28T09:31:28.277Z,74221.50
2023-04-28T09:34:00.661Z,74183.24
2023-04-28T09:36:30.307Z,74168.02
2023-04-28T09:39:00.848Z,74175.02
2023-04-28T09:41:43.569Z,74206.27
2023-04-28T09:44:11.260Z,74214.91
2023-04-28T09:46:39.707Z,74237.95
2023-04-28T09:49:09.006Z,74279.91
2023-04-28T09:51:36.694Z,74299.23
2023-04-28T09:54:04.750Z,74331.32
2023-04-28T09:56:33.284Z,74322.27
2023-04-28T09:59:01.283Z,74237.94
2023-04-28T10:01:40.399Z,74128.54
2023-04-28T10:04:09.005Z,74050.38
2023-04-28T10:06:48.678Z,74105.50
2023-04-28T10:09:26.393Z,74200.52
2023-04-28T10:11:57.389Z,74276.61
2023-04-28T10:14:26.288Z,74312.40
2023-04-28T10:16:54.561Z,74364.23
2023-04-28T10:19:23.423Z,74425.92
2023-04-28T10:21:59.054Z,74472.83
2023-04-28T10:24:31.175Z,74462.54
2023-04-28T10:27:05.189Z,74404.95
2023-04-28T10:29:34.061Z,74341.61
2023-04-28T10:32:48.740Z,74293.89
2023-04-28T10:35:25.096Z,74249.46
2023-04-28T10:38:17.845Z,74206.27
2023-04-28T10:40:51.467Z,74189.82
2023-04-28T10:43:32.374Z,74196.40
2023-04-28T10:46:05.435Z,74205.45
2023-04-28T10:48:32.705Z,74228.08
2023-04-28T10:51:24.290Z,74212.03
2023-04-28T10:53:57.327Z,74194.34
2023-04-28T10:56:30.092Z,74183.23
2023-04-28T10:58:58.010Z,74153.62
2023-04-28T11:01:34.205Z,74128.53
2023-04-28T11:04:13.251Z,74075.88
2023-04-28T11:06:44.069Z,74033.52
2023-04-28T11:09:15.834Z,74008.02
2023-04-28T11:19:26.922Z,74061.08
2023-04-28T11:21:56.843Z,74077.11
2023-04-28T11:24:27.620Z,74098.50
2023-04-28T11:26:57.792Z,74130.59
2023-04-28T11:29:42.897Z,74142.52
2023-04-28T11:32:10.592Z,74168.84
2023-04-28T11:34:41.354Z,74174.60
2023-04-28T11:37:10.361Z,74159.79
2023-04-28T11:42:32.243Z,74188.17
2023-04-28T11:44:59.639Z,74219.02
2023-04-28T11:47:34.852Z,74260.57
2023-04-28T11:50:05.989Z,74309.92
2023-04-28T11:52:36.472Z,74406.18
2023-04-28T11:55:07.091Z,74510.27
2023-04-28T11:57:35.721Z,74590.07
2023-04-28T12:07:43.159Z,74771.33
2023-04-28T12:10:17.940Z,74787.52
2023-04-28T12:12:52.603Z,74818.39
2023-04-28T12:15:25.080Z,74855.41
2023-04-28T12:17:54.675Z,74887.91
2023-04-28T12:20:35.538Z,74923.29
2023-04-28T12:23:03.048Z,74940.16
2023-04-28T12:25:30.650Z,74957.43
2023-04-28T12:28:04.384Z,74966.08
2023-04-28T12:30:36.727Z,74992.00
2023-04-28T12:33:04.488Z,75025.32
2023-04-28T12:35:33.271Z,75044.25
2023-04-28T12:38:00.541Z,75070.58
2023-04-28T12:40:28.612Z,75091.56
2023-04-28T12:42:58.035Z,75107.20
2023-04-28T12:45:26.163Z,75113.36
2023-04-28T12:47:54.199Z,75128.59
2023-04-28T12:50:27.245Z,75144.23
2023-04-28T12:52:54.674Z,75160.27
2023-04-28T12:55:22.265Z,75159.85
2023-04-28T12:57:49.586Z,75164.38
2023-04-28T13:00:17.408Z,75176.73
2023-04-28T13:02:45.719Z,75190.71
2023-04-28T13:05:14.581Z,75217.05
2023-04-28T13:07:44.808Z,75232.67
2023-04-28T13:10:14.721Z,75233.51
2023-04-28T13:12:42.725Z,75234.33
2023-04-28T13:15:11.573Z,75234.33
2023-04-28T13:17:38.856Z,75238.45
2023-04-28T13:20:07.896Z,75249.14
2023-04-28T13:22:38.935Z,75263.13
2023-04-28T13:25:06.794Z,75270.13
2023-04-28T13:27:35.761Z,75278.77
2023-04-28T13:30:06.607Z,75300.57
2023-04-28T13:32:41.794Z,75312.50
2023-04-28T13:35:11.804Z,75324.02
2023-04-28T13:37:46.115Z,75326.90
2023-04-28T13:40:17.792Z,75335.54
2023-04-28T13:42:47.403Z,75344.19
2023-04-28T13:45:17.638Z,75344.59
2023-04-28T13:47:45.136Z,75338.01
2023-04-28T13:50:12.605Z,75334.72
2023-04-28T13:52:43.476Z,75331.84
2023-04-28T13:55:17.378Z,75333.08
2023-04-28T13:57:44.804Z,75333.89
2023-04-28T14:00:14.729Z,75331.42
2023-04-28T14:02:50.788Z,75325.27
2023-04-28T14:12:52.753Z,75320.73
2023-04-28T14:23:19.417Z,75359.40
2023-04-28T14:25:51.730Z,75364.75
2023-04-28T14:28:21.683Z,75368.05
2023-04-28T14:30:53.220Z,75379.56
2023-04-28T14:33:20.439Z,75391.08
2023-04-28T14:35:47.611Z,75398.91
2023-04-28T14:38:15.000Z,75412.08
2023-04-28T14:40:43.122Z,75418.65
2023-04-28T14:43:13.441Z,75425.23
2023-04-28T14:45:40.500Z,75437.58
2023-04-28T14:48:10.108Z,75445.81
2023-04-28T14:50:40.049Z,75449.10
2023-04-28T14:53:07.887Z,75454.86
2023-04-28T14:55:35.072Z,75458.15
2023-04-28T14:58:04.023Z,75461.85
2023-04-28T15:00:34.627Z,75461.04
2023-04-28T15:03:02.432Z,75469.27
2023-04-28T15:05:29.725Z,75482.02
2023-04-28T15:07:56.796Z,75488.20
2023-04-28T15:10:24.995Z,75495.19
2023-04-28T15:12:53.052Z,75498.89
2023-04-28T15:15:20.362Z,75510.00
2023-04-28T15:17:49.890Z,75510.00
2023-04-28T15:20:17.625Z,75511.64
2023-04-28T15:22:45.135Z,75518.64
2023-04-28T15:25:12.606Z,75527.27
2023-04-28T15:27:40.379Z,75531.40
2023-04-28T15:30:14.592Z,75539.63
2023-04-28T15:32:44.735Z,75544.15
2023-04-28T15:35:12.279Z,75547.85
2023-04-28T15:37:41.064Z,75563.49
2023-04-28T15:40:15.237Z,75563.90
2023-04-28T15:42:48.268Z,75563.90
2023-04-28T15:45:18.869Z,75567.61
2023-04-28T15:47:46.459Z,75577.48
2023-04-28T15:50:18.017Z,75581.19
2023-04-28T15:52:47.392Z,75582.00
2023-04-28T15:55:15.304Z,75583.23
2023-04-28T15:57:45.486Z,75590.65
2023-04-28T16:00:14.435Z,75594.36
2023-04-28T16:02:46.186Z,75602.17
2023-04-28T16:05:13.673Z,75606.69
2023-04-28T16:07:41.589Z,75612.05
2023-04-28T16:10:13.799Z,75617.80
2023-04-28T16:12:44.721Z,75622.33
2023-04-28T16:15:12.254Z,75627.27
2023-04-28T16:17:39.641Z,75630.15
2023-04-28T16:20:07.911Z,75632.20
2023-04-28T16:22:35.760Z,75638.79
2023-04-28T16:25:05.955Z,75646.20
2023-04-28T16:27:34.644Z,75653.60
2023-04-28T16:30:08.462Z,75656.89
2023-04-28T16:32:41.118Z,75661.84
2023-04-28T16:35:14.488Z,75668.84
2023-04-28T16:37:44.506Z,75675.41
2023-04-28T16:40:11.872Z,75682.41
2023-04-28T16:42:40.174Z,75692.29
2023-04-28T16:45:09.795Z,75700.10
2023-04-28T16:47:38.197Z,75705.87
2023-04-28T16:50:33.535Z,75710.39
2023-04-28T16:53:00.812Z,75722.73
2023-04-28T16:55:28.425Z,75735.08
2023-04-28T16:57:57.455Z,75742.08
2023-04-28T17:00:31.684Z,75753.59
2023-04-28T17:03:02.358Z,75767.59
2023-04-28T17:05:33.984Z,75775.41
2023-04-28T17:08:00.912Z,75786.92
2023-04-28T17:10:28.217Z,75800.91
2023-04-28T17:12:55.205Z,75812.44
2023-04-28T17:15:26.704Z,75826.02
2023-04-28T17:17:59.276Z,75836.71
2023-04-28T17:20:26.709Z,75850.30
2023-04-28T17:22:54.365Z,75856.89
2023-04-28T17:25:25.620Z,75868.81
2023-04-28T17:28:08.461Z,75876.22
2023-04-28T17:30:40.698Z,75887.73
2023-04-28T17:33:12.229Z,75898.45
2023-04-28T17:35:39.481Z,75904.61
2023-04-28T17:38:06.731Z,75913.66
2023-04-28T17:40:36.324Z,75924.77
2023-04-28T17:43:05.629Z,75930.95
2023-04-28T17:45:34.364Z,75938.77
2023-04-28T17:48:01.576Z,75949.89
2023-04-28T17:50:29.713Z,75958.94
2023-04-28T17:52:57.619Z,75967.98
2023-04-28T17:55:26.044Z,75972.52
2023-04-28T17:57:56.146Z,75979.92
2023-04-28T18:00:23.796Z,75993.91
2023-04-28T18:02:53.065Z,76005.02
2023-04-28T18:05:23.139Z,76014.08
2023-04-28T18:08:03.386Z,76017.37
2023-04-28T18:10:36.225Z,76023.95
2023-04-28T18:13:19.351Z,76032.18
2023-04-28T18:15:46.527Z,76035.07
2023-04-28T18:18:13.612Z,76044.95
2023-04-28T18:20:42.344Z,76049.06
2023-04-28T18:23:12.524Z,76059.76
2023-04-28T18:25:41.137Z,76061.81
2023-04-28T18:28:09.908Z,76069.23
2023-04-28T18:30:39.714Z,76071.70
2023-04-28T18:33:08.829Z,76078.69
2023-04-28T18:35:39.435Z,76083.63
2023-04-28T18:38:07.114Z,76087.74
2023-04-28T18:40:37.070Z,76091.86
2023-04-28T18:43:04.612Z,76096.80
2023-04-28T18:45:33.941Z,76100.91
2023-04-28T18:48:10.414Z,76109.14
2023-04-28T18:50:41.048Z,76111.61
2023-04-28T18:53:14.386Z,76116.13
2023-04-28T18:55:41.364Z,76120.66
2023-04-28T18:58:14.607Z,76123.13
2023-04-28T19:00:45.291Z,76128.89
2023-04-28T19:03:13.134Z,76135.89
2023-04-28T19:05:44.287Z,76139.60
2023-04-28T19:08:12.604Z,76148.65
2023-04-28T19:10:41.889Z,76156.88
2023-04-28T19:13:10.607Z,76168.81
2023-04-28T19:15:42.107Z,76175.40
2023-04-28T19:18:09.576Z,76176.21
2023-04-28T19:20:38.887Z,76183.63
2023-04-28T19:23:06.036Z,76191.04
2023-04-28T19:25:36.325Z,76195.97
2023-04-28T19:28:03.601Z,76202.55
2023-04-28T19:30:30.658Z,76206.27
2023-04-28T19:32:57.610Z,76212.02
2023-04-28T19:35:25.701Z,76218.20
2023-04-28T19:37:56.524Z,76222.72
2023-04-28T19:40:26.623Z,76228.89
2023-04-28T19:42:59.569Z,76233.83
2023-04-28T19:45:27.762Z,76237.13
2023-04-28T19:47:56.246Z,76237.54
2023-04-28T19:50:25.548Z,76238.77
2023-04-28T19:52:52.611Z,76244.54
2023-04-28T19:55:20.805Z,76247.41
2023-04-28T19:57:52.559Z,76246.17
2023-04-28T20:00:21.170Z,76252.36
2023-04-28T20:02:52.011Z,76254.41
2023-04-28T20:05:21.222Z,76258.94
2023-04-28T20:07:51.509Z,76263.05
2023-04-28T20:10:19.773Z,76265.11
2023-04-28T20:12:48.710Z,76272.52
2023-04-28T20:15:17.756Z,76274.58
2023-04-28T20:17:46.295Z,76276.22
2023-04-28T20:20:19.226Z,76277.87
2023-04-28T20:22:50.428Z,76279.92
2023-04-28T20:25:19.029Z,76281.56
2023-04-28T20:27:56.549Z,76286.92
2023-04-28T20:30:26.198Z,76286.92
2023-04-28T20:32:55.883Z,76288.98
2023-04-28T20:35:24.595Z,76290.63
2023-04-28T20:37:52.765Z,76294.73
2023-04-28T20:40:19.694Z,76301.33
2023-04-28T20:42:47.056Z,76308.33
2023-04-28T20:45:14.706Z,76310.38
2023-04-28T20:47:42.069Z,76316.14
2023-04-28T20:50:11.484Z,76320.27
2023-04-28T20:52:38.928Z,76322.73
2023-04-28T20:55:06.654Z,76325.20
2023-04-28T20:57:37.109Z,76324.79
2023-04-28T21:00:04.870Z,76330.14
2023-04-28T21:02:33.110Z,76336.31
2023-04-28T21:05:00.299Z,76340.42
2023-04-28T21:07:27.525Z,76337.95
2023-04-28T21:09:57.859Z,76344.13
2023-04-28T21:12:25.325Z,76351.95
2023-04-28T21:14:52.612Z,76352.77
2023-04-28T21:17:19.684Z,76354.41
2023-04-28T21:19:46.898Z,76358.12
2023-04-28T21:22:16.108Z,76360.59
2023-04-28T21:24:43.261Z,76365.52
2023-04-28T21:27:12.719Z,76364.29
2023-04-28T21:29:42.630Z,76364.70
2023-04-28T21:32:11.054Z,76365.54
2023-04-28T21:34:38.171Z,76371.29
2023-04-28T21:37:05.283Z,76371.29
2023-04-28T21:39:34.917Z,76369.64
2023-04-28T21:42:04.206Z,76375.00
2023-04-28T21:44:32.797Z,76377.88
2023-04-28T21:47:01.388Z,76378.70
2023-04-28T21:49:29.766Z,76378.70
2023-04-28T21:51:57.098Z,76379.52
2023-04-28T21:54:30.654Z,76381.99
2023-04-28T21:56:57.655Z,76388.17
2023-04-28T21:59:24.870Z,76390.23
2023-04-28T22:01:54.537Z,76392.27
2023-04-28T22:04:24.105Z,76398.87
2023-04-28T22:06:51.888Z,76400.52
2023-04-28T22:09:21.535Z,76404.21
2023-04-28T22:11:48.542Z,76408.34
2023-04-28T22:14:35.094Z,76411.21
2023-04-28T22:17:02.712Z,76411.62
2023-04-28T22:19:33.119Z,76416.16
2023-04-28T22:22:00.725Z,76418.21
2023-04-28T22:24:31.268Z,76416.16
2023-04-28T22:26:58.589Z,76419.44
2023-04-28T22:29:25.668Z,76418.20
2023-04-28T22:31:53.002Z,76419.44
2023-04-28T22:34:21.651Z,76419.44
2023-04-28T22:36:49.862Z,76422.33
2023-04-28T22:39:16.902Z,76426.85
2023-04-28T22:41:45.275Z,76427.27
2023-04-28T22:44:12.631Z,76429.33
2023-04-28T22:46:41.007Z,76430.56
2023-04-28T22:49:07.953Z,76432.20
2023-04-28T22:51:40.324Z,76435.09
2023-04-28T22:54:08.593Z,76439.20
2023-04-28T22:56:36.665Z,76438.38
2023-04-28T22:59:03.900Z,76439.61
2023-04-28T23:01:32.110Z,76444.14
2023-04-28T23:03:59.487Z,76442.91
2023-04-28T23:06:28.330Z,76442.90
2023-04-28T23:08:55.468Z,76439.20
2023-04-28T23:11:23.735Z,76438.38
2023-04-28T23:13:51.214Z,76440.02
2023-04-28T23:16:18.372Z,76439.61
2023-04-28T23:18:45.382Z,76440.02
2023-04-28T23:21:12.404Z,76441.26
2023-04-28T23:23:39.373Z,76445.38
2023-04-28T23:26:06.299Z,76446.20
2023-04-28T23:28:33.406Z,76446.60
2023-04-28T23:31:00.378Z,76448.66
2023-04-28T23:33:29.043Z,76455.25
2023-04-28T23:35:57.044Z,76461.42
2023-04-28T23:38:25.869Z,76467.59
2023-04-28T23:40:52.967Z,76468.83
2023-04-28T23:43:20.510Z,76470.07
2023-04-28T23:45:48.785Z,76475.00
2023-04-28T23:48:16.008Z,76478.30
2023-04-28T23:50:43.218Z,76481.59
2023-04-28T23:53:10.329Z,76484.89
2023-04-28T23:55:37.388Z,76488.17
2023-04-28T23:58:05.733Z,76488.59
